Time;durP1;ratioP1;P1;durP2;ratioP2;P2;SDS_P1;SDS_P2;PMS_P1;PMS_P2;Temp;Humidity;BMP_temperature;BMP_pressure;BME280_temperature;BME280_humidity;BME280_pressure;Samples;Min_cycle;Max_cycle;Signal;HPM_P1;HPM_P2
2023/10/09 00:03:03;;;;;;;3.00;0.30;;;;;;;7.69;49.54;100237.52;105057;1256;61421;-57
2023/10/09 00:06:07;;;;;;;0.80;0.10;;;;;;;7.68;49.65;100239.71;105785;1260;63745;-58
2023/10/09 00:08:32;;;;;;;1.40;0.20;;;;;;;7.64;49.70;100240.14;105688;1260;61751;-56
2023/10/09 00:11:19;;;;;;;0.70;0.00;;;;;;;7.61;49.57;100247.33;105109;1257;60561;-54
2023/10/09 00:13:51;;;;;;;0.30;0.20;;;;;;;7.60;49.52;100249.65;105244;1256;63635;-57
2023/10/09 00:16:32;;;;;;;1.60;0.50;;;;;;;7.61;49.26;100252.02;105309;1256;61401;-55
2023/10/09 00:19:16;;;;;;;0.50;0.20;;;;;;;7.64;48.88;100248.54;105179;1260;63797;-58
2023/10/09 00:21:45;;;;;;;2.60;0.20;;;;;;;7.67;48.89;100251.15;105364;1265;60575;-55
2023/10/09 00:24:13;;;;;;;1.30;0.10;;;;;;;7.69;48.81;100249.45;105482;1257;60509;-56
2023/10/09 00:26:45;;;;;;;4.00;0.50;;;;;;;7.72;48.80;100257.44;105486;1256;65465;-56
2023/10/09 00:29:21;;;;;;;2.10;0.30;;;;;;;7.75;48.89;100259.45;105083;1258;61437;-57
2023/10/09 00:31:51;;;;;;;40.10;3.00;;;;;;;7.77;48.90;100260.90;105015;1259;64218;-56
2023/10/09 00:34:19;;;;;;;2.00;0.40;;;;;;;7.79;48.96;100267.21;105284;1260;60638;-56
2023/10/09 00:36:50;;;;;;;1.10;0.40;;;;;;;7.77;49.23;100268.57;105392;1257;62034;-55
2023/10/09 00:42:14;;;;;;;0.30;0.00;;;;;;;7.77;49.65;100281.16;104887;1257;61360;-57
2023/10/09 00:44:42;;;;;;;1.00;0.10;;;;;;;7.77;49.81;100285.02;105471;1262;63842;-55
2023/10/09 00:47:22;;;;;;;2.10;0.40;;;;;;;7.75;49.87;100288.47;105153;1256;60460;-55
2023/10/09 00:49:59;;;;;;;0.40;0.00;;;;;;;7.74;50.01;100291.81;105235;1262;60554;-55
2023/10/09 00:52:36;;;;;;;0.10;0.00;;;;;;;7.72;50.29;100293.53;105302;1257;63638;-55
2023/10/09 00:55:13;;;;;;;1.30;0.20;;;;;;;7.70;50.52;100291.79;105695;1262;60374;-55
2023/10/09 00:57:50;;;;;;;1.50;0.20;;;;;;;7.67;50.77;100301.05;106214;1260;63831;-56
2023/10/09 01:00:32;;;;;;;1.00;0.10;;;;;;;7.65;51.12;100304.54;104962;1263;60611;-57
2023/10/09 01:05:57;;;;;;;1.00;0.10;;;;;;;7.58;51.80;100304.11;105356;1256;64975;-56
2023/10/09 01:08:43;;;;;;;1.60;0.20;;;;;;;7.58;51.89;100311.10;104987;1257;61843;-57
2023/10/09 01:11:23;;;;;;;4.90;0.30;;;;;;;7.55;52.08;100308.50;105179;1262;63675;-56
2023/10/09 01:16:31;;;;;;;4.20;0.40;;;;;;;7.59;52.34;100311.75;105135;1257;60569;-56
2023/10/09 01:19:06;;;;;;;1.00;0.20;;;;;;;7.58;52.46;100318.05;105177;1262;64911;-55
2023/10/09 01:21:34;;;;;;;1.40;0.20;;;;;;;7.55;52.67;100320.23;105611;1260;61504;-53
2023/10/09 01:24:08;;;;;;;1.30;0.60;;;;;;;7.52;52.78;100333.83;105048;1260;64065;-55
2023/10/09 01:26:44;;;;;;;4.40;0.90;;;;;;;7.47;53.05;100327.73;105056;1264;60562;-54
2023/10/09 01:29:16;;;;;;;;;;;;;;;7.48;53.39;100330.98;105451;1258;60546;-54
2023/10/09 01:32:02;;;;;;;1.80;0.40;;;;;;;7.57;53.60;100334.05;105087;1258;64936;-54
2023/10/09 01:34:49;;;;;;;0.80;0.40;;;;;;;7.59;54.10;100339.08;104985;1263;60464;-54
2023/10/09 01:37:22;;;;;;;0.80;0.20;;;;;;;7.57;55.04;100342.77;105188;1256;63471;-54
2023/10/09 01:39:57;;;;;;;1.20;0.20;;;;;;;7.53;55.43;100344.59;105207;1262;60688;-54
2023/10/09 01:42:45;;;;;;;0.70;0.10;;;;;;;7.48;55.39;100340.90;105172;1263;60458;-55
2023/10/09 01:47:41;;;;;;;1.70;0.20;;;;;;;7.41;55.30;100335.42;105461;1263;62130;-54
2023/10/09 01:50:12;;;;;;;0.30;0.10;;;;;;;7.38;55.46;100344.54;105033;1263;62491;-56
2023/10/09 01:52:42;;;;;;;1.40;0.10;;;;;;;7.41;55.81;100349.27;105109;1262;60569;-54
2023/10/09 01:55:59;;;;;;;0.70;0.20;;;;;;;7.48;55.88;100353.66;105415;1265;60479;-55
2023/10/09 01:57:58;;;;;;;1.00;0.40;;;;;;;7.55;55.91;100356.48;105057;1262;64985;-55
2023/10/09 02:00:29;;;;;;;1.50;0.10;;;;;;;7.58;55.48;100358.08;105032;1265;60457;-57
2023/10/09 02:03:02;;;;;;;2.70;0.20;;;;;;;7.56;55.14;100361.12;105154;1260;63775;-56
2023/10/09 02:05:33;;;;;;;1.00;0.20;;;;;;;7.48;55.05;100360.46;104975;1257;62972;-56
2023/10/09 02:08:03;;;;;;;4.60;0.70;;;;;;;7.39;55.13;100364.41;105143;1262;60824;-55
2023/10/09 02:10:31;;;;;;;2.20;0.10;;;;;;;7.33;55.34;100367.60;105549;1262;64894;-60
2023/10/09 02:13:06;;;;;;;0.80;0.20;;;;;;;7.27;55.59;100370.77;105013;1265;60415;-60
2023/10/09 02:18:17;;;;;;;0.90;0.10;;;;;;;7.14;55.04;100381.58;105349;1257;60413;-60
2023/10/09 02:20:46;;;;;;;0.60;0.10;;;;;;;7.08;54.92;100375.53;105289;1263;60578;-60
2023/10/09 02:23:17;;;;;;;3.70;0.20;;;;;;;7.07;55.05;100380.27;105264;1256;63686;-59
2023/10/09 02:25:45;;;;;;;1.20;0.20;;;;;;;7.07;55.00;100379.20;105384;1262;61313;-59
2023/10/09 02:28:19;;;;;;;1.70;0.30;;;;;;;7.11;54.75;100381.63;105528;1262;63695;-61
2023/10/09 02:30:48;;;;;;;0.00;0.00;;;;;;;7.18;54.43;100385.70;105292;1261;60493;-63
2023/10/09 02:33:27;;;;;;;2.90;0.20;;;;;;;7.26;54.15;100385.69;105338;1263;60396;-60
2023/10/09 02:35:59;;;;;;;0.50;0.10;;;;;;;7.29;54.12;100390.05;105119;1259;64938;-59
2023/10/09 02:38:27;;;;;;;3.10;0.20;;;;;;;7.29;54.08;100390.38;105865;1262;60511;-60
2023/10/09 02:41:20;;;;;;;0.60;0.00;;;;;;;7.32;54.08;100395.39;105171;1259;63738;-59
2023/10/09 02:43:50;;;;;;;1.30;0.50;;;;;;;7.30;54.23;100399.41;105286;1256;60556;-59
2023/10/09 02:46:18;;;;;;;1.40;0.20;;;;;;;7.23;54.33;100402.42;105106;1265;60536;-59
2023/10/09 02:48:50;;;;;;;2.10;0.40;;;;;;;7.18;54.54;100397.20;105138;1257;63738;-58
2023/10/09 02:51:48;;;;;;;1.40;0.00;;;;;;;7.14;54.80;100401.46;105500;1257;61350;-58
2023/10/09 02:54:26;;;;;;;0.60;0.10;;;;;;;7.10;54.78;100403.83;105382;1259;62468;-58
2023/10/09 02:57:16;;;;;;;1.50;0.10;;;;;;;7.03;54.99;100400.95;105151;1260;60577;-59
2023/10/09 02:59:44;;;;;;;1.00;0.30;;;;;;;6.96;55.27;100408.03;105189;1265;60378;-60
2023/10/09 03:02:12;;;;;;;0.80;0.00;;;;;;;6.92;55.45;100410.77;105356;1258;63742;-60
2023/10/09 03:04:41;;;;;;;1.50;0.20;;;;;;;6.95;55.43;100415.79;105130;1263;61898;-59
2023/10/09 03:07:10;;;;;;;0.40;0.20;;;;;;;6.99;55.42;100422.13;105461;1257;62512;-59
2023/10/09 03:09:38;;;;;;;1.10;0.20;;;;;;;7.01;55.54;100423.94;105093;1259;60576;-60
2023/10/09 03:12:09;;;;;;;1.20;0.10;;;;;;;6.98;55.55;100429.34;105019;1263;60559;-59
2023/10/09 03:14:41;;;;;;;1.50;0.20;;;;;;;6.92;55.79;100424.35;104978;1257;63667;-59
2023/10/09 03:17:12;;;;;;;2.20;0.60;;;;;;;6.85;56.00;100427.91;105326;1257;61324;-62
2023/10/09 03:19:43;;;;;;;2.30;0.40;;;;;;;6.79;56.08;100426.73;105074;1259;63705;-59
2023/10/09 03:22:11;;;;;;;0.60;0.10;;;;;;;6.77;56.25;100431.37;105594;1262;60543;-61
2023/10/09 03:24:44;;;;;;;0.10;0.00;;;;;;;6.77;56.26;100430.02;105097;1261;61593;-61
2023/10/09 03:27:17;;;;;;;1.00;0.20;;;;;;;6.74;56.37;100430.19;105354;1262;64864;-60
2023/10/09 03:29:49;;;;;;;0.80;0.20;;;;;;;6.69;56.57;100434.12;105284;1260;61519;-59
2023/10/09 03:32:19;;;;;;;1.30;0.20;;;;;;;6.66;56.76;100432.94;105288;1262;63765;-58
2023/10/09 03:34:49;;;;;;;0.90;0.10;;;;;;;6.70;56.83;100434.46;105113;1260;60565;-61
2023/10/09 03:37:33;;;;;;;1.50;0.30;;;;;;;6.69;56.94;100434.48;105485;1256;60565;-60
2023/10/09 03:40:03;;;;;;;1.40;0.50;;;;;;;6.65;57.00;100444.36;105171;1257;63976;-59
2023/10/09 03:42:33;;;;;;;1.00;0.20;;;;;;;6.60;57.01;100447.77;105173;1261;61387;-60
2023/10/09 03:45:01;;;;;;;1.40;0.40;;;;;;;6.56;57.28;100450.27;105775;1260;63760;-59
2023/10/09 03:47:29;;;;;;;1.30;0.40;;;;;;;6.53;57.55;100457.48;105208;1262;60505;-60
2023/10/09 03:49:57;;;;;;;0.90;0.10;;;;;;;6.46;57.63;100457.02;105077;1263;60391;-60
2023/10/09 03:52:27;;;;;;;0.70;0.20;;;;;;;6.41;57.65;100463.23;105101;1262;64949;-62
2023/10/09 03:54:55;;;;;;;1.10;0.20;;;;;;;6.40;57.71;100462.63;105032;1263;61424;-59
2023/10/09 03:57:23;;;;;;;0.30;0.10;;;;;;;6.46;57.55;100462.73;105065;1262;63749;-59
2023/10/09 03:59:51;;;;;;;1.90;0.70;;;;;;;6.53;57.36;100458.30;105172;1257;60586;-62
2023/10/09 04:02:22;;;;;;;1.60;0.30;;;;;;;6.54;57.33;100462.14;105363;1263;60458;-59
2023/10/09 04:04:50;;;;;;;0.90;0.20;;;;;;;6.51;57.49;100466.44;105009;1258;63676;-61
2023/10/09 04:07:18;;;;;;;0.70;0.20;;;;;;;6.52;57.46;100469.73;105219;1263;61393;-60
2023/10/09 04:09:51;;;;;;;3.00;0.30;;;;;;;6.50;57.47;100479.06;105033;1262;62536;-63
2023/10/09 04:12:24;;;;;;;0.50;0.20;;;;;;;6.44;57.54;100484.67;104893;1260;60922;-61
2023/10/09 04:15:01;;;;;;;0.70;0.20;;;;;;;6.38;57.72;100483.31;105161;1261;60463;-59
2023/10/09 04:25:40;;;;;;;1.10;0.30;;;;;;;6.54;57.25;100501.86;104900;1257;61656;-55
2023/10/09 04:31:06;;;;;;;0.80;0.20;;;;;;;6.44;57.55;100507.35;105354;1265;65666;-60
2023/10/09 04:42:19;;;;;;;2.60;0.30;;;;;;;6.38;57.82;100513.44;105709;1259;60485;-59
2023/10/09 04:44:24;;;;;;;1.60;0.20;;;;;;;6.49;57.69;100524.99;105038;1263;63657;-60
2023/10/09 04:55:44;;;;;;;1.20;0.30;;;;;;;6.46;57.58;100539.79;105062;1267;60386;-62
2023/10/09 05:02:54;;;;;;;1.10;0.40;;;;;;;6.35;58.07;100549.90;105259;1264;62580;-61
2023/10/09 05:08:21;;;;;;;1.30;0.20;;;;;;;6.32;57.79;100558.23;105473;1263;60483;-59
2023/10/09 05:16:25;;;;;;;1.50;0.40;;;;;;;6.56;57.29;100574.92;105569;1262;64233;-62
2023/10/09 05:19:05;;;;;;;0.30;0.10;;;;;;;6.62;57.06;100573.71;105170;1263;60575;-60
2023/10/09 05:29:19;;;;;;;2.00;0.60;;;;;;;6.85;56.03;100585.86;105166;1266;63844;-60
2023/10/09 05:35:04;;;;;;;1.40;0.20;;;;;;;6.93;55.48;100584.24;104918;1264;60629;-61
2023/10/09 05:37:33;;;;;;;1.00;0.30;;;;;;;6.95;55.27;100585.98;104926;1265;66211;-61
2023/10/09 05:42:57;;;;;;;4.50;0.20;;;;;;;6.98;54.84;100595.89;105240;1261;62525;-60
2023/10/09 05:46:07;;;;;;;0.50;0.00;;;;;;;7.06;54.55;100605.38;104925;1260;60579;-59
2023/10/09 05:51:41;;;;;;;0.20;0.10;;;;;;;7.23;54.25;100600.11;105520;1267;64967;-60
2023/10/09 06:05:41;;;;;;;;;;;;;;;7.37;53.26;100599.45;104691;1263;63705;-63
2023/10/09 06:08:12;;;;;;;1.20;0.20;;;;;;;7.41;53.16;100602.86;105494;1264;61328;-61
2023/10/09 06:10:41;;;;;;;1.50;0.30;;;;;;;7.42;52.67;100603.33;104931;1265;63762;-61
2023/10/09 06:13:37;;;;;;;2.40;0.20;;;;;;;7.42;52.68;100607.17;105516;1263;423543;-58
2023/10/09 06:28:32;;;;;;;2.90;1.20;;;;;;;7.67;51.26;100614.09;103049;1285;605001;-59
2023/10/09 06:31:27;;;;;;;6.70;0.90;;;;;;;8.14;49.80;100616.48;104500;1266;121291;-61
2023/10/09 06:36:32;;;;;;;1.80;0.50;;;;;;;8.09;48.92;100628.91;105472;1262;63411;-57
2023/10/09 06:42:02;;;;;;;1.20;0.20;;;;;;;8.08;49.72;100627.03;104875;1263;64103;-56
2023/10/09 06:47:17;;;;;;;0.60;0.20;;;;;;;8.09;48.96;100627.45;105147;1262;59445;-57
2023/10/09 06:50:12;;;;;;;1.80;0.60;;;;;;;8.09;48.97;100634.63;105146;1262;63437;-61
2023/10/09 06:52:57;;;;;;;0.80;0.20;;;;;;;8.11;49.06;100629.27;105357;1254;61861;-56
2023/10/09 06:55:19;;;;;;;6.60;1.20;;;;;;;8.15;48.95;100637.60;105330;1254;63833;-58
2023/10/09 06:57:49;;;;;;;0.70;0.10;;;;;;;8.17;48.99;100637.43;105299;1254;59743;-59
2023/10/09 07:03:11;;;;;;;1.60;0.40;;;;;;;8.24;48.50;100636.45;105254;1257;64490;-58
2023/10/09 07:06:00;;;;;;;2.60;0.50;;;;;;;8.27;48.31;100641.67;105904;1254;61734;-57
2023/10/09 07:08:31;;;;;;;3.00;0.60;;;;;;;8.27;48.00;100640.09;105439;1254;62571;-58
2023/10/09 07:13:54;;;;;;;2.80;0.40;;;;;;;8.29;47.81;100643.27;105569;1254;59726;-57
2023/10/09 07:16:28;;;;;;;0.20;0.10;;;;;;;8.30;47.93;100644.93;105517;1258;64248;-59
2023/10/09 07:19:09;;;;;;;2.80;0.50;;;;;;;8.35;47.75;100643.91;105390;1259;60102;-60
2023/10/09 07:21:39;;;;;;;2.50;0.70;;;;;;;8.41;47.67;100635.86;105251;1257;63685;-61
2023/10/09 07:24:17;;;;;;;1.40;0.40;;;;;;;8.45;47.15;100636.86;105822;1254;59638;-59
2023/10/09 07:26:52;;;;;;;2.00;0.20;;;;;;;8.51;47.27;100636.79;105645;1254;59768;-59
2023/10/09 07:29:23;;;;;;;;;;;;;;;8.58;47.40;100643.52;105423;1259;64431;-59
2023/10/09 07:31:57;;;;;;;1.70;0.60;;;;;;;8.64;47.25;100643.46;105467;1258;60103;-58
2023/10/09 07:37:24;;;;;;;0.90;0.30;;;;;;;8.75;46.60;100652.49;105198;1254;59587;-59
2023/10/09 07:39:57;;;;;;;2.50;0.50;;;;;;;8.78;46.38;100643.88;105451;1254;59663;-60
2023/10/09 07:50:38;;;;;;;1.70;0.20;;;;;;;8.95;45.66;100663.71;105303;1254;59675;-60
2023/10/09 07:55:58;;;;;;;0.60;0.20;;;;;;;9.03;45.82;100660.18;105420;1258;64203;-60
2023/10/09 07:58:25;;;;;;;3.20;0.90;;;;;;;9.07;46.39;100664.26;105368;1254;61478;-62
2023/10/09 08:03:29;;;;;;;1.30;0.60;;;;;;;9.18;45.90;100669.52;105397;1259;59646;-57
2023/10/09 08:06:06;;;;;;;2.80;0.80;;;;;;;9.19;45.47;100663.27;105366;1254;59634;-59
2023/10/09 08:13:57;;;;;;;3.50;0.70;;;;;;;9.29;45.22;100669.44;105340;1254;64059;-54
2023/10/09 08:16:24;;;;;;;1.90;0.40;;;;;;;9.34;44.09;100669.23;105366;1254;59718;-51
2023/10/09 08:18:57;;;;;;;0.40;0.10;;;;;;;9.38;43.58;100666.50;105451;1259;59590;-59
2023/10/09 08:22:07;;;;;;;7.20;1.00;;;;;;;9.40;43.65;100660.06;105506;1257;64220;-58
2023/10/09 08:24:35;;;;;;;1.60;0.40;;;;;;;9.44;43.82;100658.07;105912;1257;61759;-60
2023/10/09 08:30:12;;;;;;;3.40;0.90;;;;;;;9.53;42.99;100667.73;105171;1254;59708;-59
2023/10/09 08:32:40;;;;;;;0.60;0.20;;;;;;;9.57;43.14;100662.91;105631;1258;59868;-63
2023/10/09 08:35:29;;;;;;;6.70;1.20;;;;;;;9.62;42.30;100666.41;105619;1256;64420;-60
2023/10/09 08:38:07;;;;;;;1.00;0.30;;;;;;;9.65;42.50;100662.52;106048;1254;61574;-59
2023/10/09 08:40:39;;;;;;;3.80;0.70;;;;;;;9.72;42.41;100677.96;105896;1254;64195;-61
2023/10/09 08:43:09;;;;;;;4.50;1.00;;;;;;;9.78;41.94;100671.35;105840;1254;59669;-58
2023/10/09 08:45:39;;;;;;;1.20;0.20;;;;;;;9.85;41.14;100674.57;105838;1257;60311;-59
2023/10/09 08:48:07;;;;;;;3.70;0.90;;;;;;;9.89;41.42;100670.98;106733;1257;64455;-61
2023/10/09 08:50:36;;;;;;;1.70;0.30;;;;;;;9.94;41.73;100678.15;105859;1254;61660;-61
2023/10/09 08:53:03;;;;;;;3.70;0.80;;;;;;;9.99;41.07;100674.77;105809;1254;64090;-60
2023/10/09 08:55:30;;;;;;;4.00;0.20;;;;;;;10.03;40.80;100675.19;105880;1254;59538;-60
2023/10/09 08:57:58;;;;;;;3.50;0.80;;;;;;;10.03;40.23;100674.45;105979;1254;59663;-58
2023/10/09 09:00:25;;;;;;;3.00;0.50;;;;;;;9.99;40.34;100676.86;106055;1255;64455;-61
2023/10/09 09:02:53;;;;;;;4.30;0.90;;;;;;;9.94;40.50;100672.70;105349;1257;61650;-58
2023/10/09 09:05:20;;;;;;;2.40;0.60;;;;;;;9.95;41.16;100680.34;105494;1259;62496;-58
2023/10/09 09:07:48;;;;;;;3.40;1.00;;;;;;;9.99;41.37;100673.71;105567;1258;59689;-57
2023/10/09 09:10:21;;;;;;;1.20;0.10;;;;;;;10.08;41.23;100677.48;105277;1255;59759;-57
2023/10/09 09:13:10;;;;;;;3.60;0.60;;;;;;;10.14;40.74;100683.12;105498;1259;64369;-58
2023/10/09 09:15:39;;;;;;;0.50;0.20;;;;;;;10.22;41.02;100689.20;105895;1258;61550;-59
2023/10/09 09:18:08;;;;;;;6.80;0.90;;;;;;;10.31;41.64;100687.54;105708;1255;64544;-60
2023/10/09 09:20:45;;;;;;;3.50;0.80;;;;;;;10.44;41.62;100684.80;105882;1254;59641;-60
2023/10/09 09:23:12;;;;;;;2.40;0.60;;;;;;;10.61;41.34;100691.81;105799;1254;59641;-61
2023/10/09 09:25:58;;;;;;;2.70;0.50;;;;;;;10.74;40.41;100689.96;105649;1259;64481;-58
2023/10/09 09:28:26;;;;;;;1.00;0.30;;;;;;;10.83;39.41;100692.14;105389;1254;61668;-59
2023/10/09 09:30:56;;;;;;;3.40;0.80;;;;;;;10.86;39.29;100695.73;105487;1254;62438;-62
2023/10/09 09:33:48;;;;;;;3.90;0.80;;;;;;;10.88;39.04;100689.05;105287;1254;59879;-60
2023/10/09 09:36:11;;;;;;;1.00;0.20;;;;;;;10.92;39.01;100692.60;105687;1256;59696;-59
2023/10/09 09:38:42;;;;;;;3.40;0.80;;;;;;;10.93;38.45;100693.04;105441;1258;64887;-60
2023/10/09 09:41:09;;;;;;;3.90;0.60;;;;;;;10.89;38.01;100699.88;105472;1254;62502;-59
2023/10/09 09:43:44;;;;;;;1.60;0.40;;;;;;;10.84;37.96;100699.58;105925;1258;63860;-60
2023/10/09 09:46:12;;;;;;;2.30;0.70;;;;;;;10.82;38.04;100696.55;105381;1259;59700;-60
2023/10/09 09:48:45;;;;;;;3.50;0.80;;;;;;;10.81;38.12;100692.42;105859;1254;59749;-62
2023/10/09 09:51:17;;;;;;;1.60;0.30;;;;;;;10.77;37.46;100690.81;105323;1259;64238;-58
2023/10/09 09:53:49;;;;;;;3.80;0.80;;;;;;;10.70;37.58;100688.17;109198;1253;61929;-60
2023/10/09 09:56:18;;;;;;;5.00;1.40;;;;;;;10.66;37.82;100691.95;105385;1259;63966;-61
2023/10/09 09:58:46;;;;;;;1.60;0.30;;;;;;;10.68;36.98;100686.38;105627;1254;60012;-58
2023/10/09 10:01:16;;;;;;;3.20;0.60;;;;;;;10.74;35.31;100696.47;105737;1258;59670;-58
2023/10/09 10:04:13;;;;;;;4.50;1.70;;;;;;;10.80;35.07;100694.38;105219;1260;64337;-61
2023/10/09 10:06:42;;;;;;;2.00;0.30;;;;;;;10.88;35.41;100693.10;105798;1254;61777;-60
2023/10/09 10:09:37;;;;;;;4.30;0.70;;;;;;;10.94;35.73;100701.79;105926;1259;62866;-62
2023/10/09 10:12:09;;;;;;;2.60;0.70;;;;;;;10.98;36.17;100692.37;105912;1254;59736;-59
2023/10/09 10:14:59;;;;;;;0.90;0.10;;;;;;;11.03;36.33;100684.98;106032;1254;59746;-56
2023/10/09 10:17:29;;;;;;;2.80;0.70;;;;;;;11.06;34.99;100687.50;105435;1257;64205;-59
2023/10/09 10:22:48;;;;;;;2.80;0.70;;;;;;;11.18;34.85;100674.49;105683;1254;62783;-59
2023/10/09 10:25:35;;;;;;;3.50;0.80;;;;;;;11.22;35.05;100666.23;105562;1254;59646;-61
2023/10/09 10:28:54;;;;;;;1.70;0.20;;;;;;;11.27;34.92;100670.21;105972;1254;59624;-59
2023/10/09 10:31:13;;;;;;;3.40;0.70;;;;;;;11.35;34.78;100665.46;105871;1258;65417;-62
2023/10/09 10:33:56;;;;;;;2.60;0.60;;;;;;;11.42;34.37;100660.69;105844;1253;61671;-60
2023/10/09 10:36:24;;;;;;;3.10;0.80;;;;;;;11.54;34.56;100654.64;105644;1254;63818;-63
2023/10/09 10:39:11;;;;;;;0.80;0.10;;;;;;;11.64;34.44;100648.67;105548;1259;59509;-59
2023/10/09 10:41:50;;;;;;;3.10;0.60;;;;;;;11.74;34.25;100641.63;105850;1258;59616;-59
2023/10/09 10:44:41;;;;;;;3.50;0.90;;;;;;;11.83;33.91;100641.44;105503;1259;64120;-59
2023/10/09 10:47:22;;;;;;;2.40;0.60;;;;;;;11.88;33.90;100643.84;105994;1254;61833;-63
2023/10/09 10:49:51;;;;;;;3.50;0.80;;;;;;;11.87;33.13;100642.86;105409;1254;63919;-59
2023/10/09 10:52:44;;;;;;;2.30;0.60;;;;;;;11.83;33.26;100639.11;105519;1254;60486;-59
2023/10/09 10:58:23;;;;;;;3.10;0.60;;;;;;;11.90;32.94;100640.86;106200;1259;65392;-59
2023/10/09 11:03:35;;;;;;;2.70;0.70;;;;;;;12.05;32.52;100628.55;105378;1259;63730;-62
2023/10/09 11:06:15;;;;;;;2.80;0.60;;;;;;;12.15;32.40;100626.52;105982;1257;60445;-59
2023/10/09 11:08:54;;;;;;;2.00;0.50;;;;;;;12.25;32.01;100620.58;105929;1254;60434;-61
2023/10/09 11:11:21;;;;;;;3.00;0.60;;;;;;;12.36;31.34;100614.59;105438;1259;65222;-58
2023/10/09 11:13:57;;;;;;;3.60;0.90;;;;;;;12.46;31.63;100616.39;105471;1254;61483;-59
2023/10/09 11:24:34;;;;;;;2.60;0.50;;;;;;;12.57;31.07;100606.98;106042;1253;64042;-54
2023/10/09 11:27:05;;;;;;;6.90;0.70;;;;;;;12.55;31.43;100606.77;106031;1259;60546;-56
2023/10/09 11:32:23;;;;;;;4.90;0.90;;;;;;;12.59;31.71;100603.79;105774;1259;60568;-60
2023/10/09 11:34:54;;;;;;;3.10;0.70;;;;;;;12.62;31.54;100605.54;105406;1255;60594;-60
2023/10/09 11:40:00;;;;;;;3.40;0.90;;;;;;;12.68;31.66;100609.76;105426;1260;60617;-59
2023/10/09 11:42:38;;;;;;;3.90;0.70;;;;;;;12.72;31.78;100611.91;105450;1254;62905;-60
2023/10/09 11:45:23;;;;;;;3.90;0.70;;;;;;;12.78;32.20;100611.17;105380;1258;60566;-59
2023/10/09 11:47:57;;;;;;;5.20;0.60;;;;;;;12.88;32.12;100608.73;105391;1254;60454;-59
2023/10/09 11:50:51;;;;;;;2.80;0.70;;;;;;;12.96;31.97;100608.73;106227;1259;64997;-60
2023/10/09 11:55:52;;;;;;;1.80;0.50;;;;;;;13.13;31.39;100604.42;105605;1258;63964;-60
2023/10/09 11:58:23;;;;;;;4.10;0.70;;;;;;;13.22;31.60;100606.57;105626;1260;60459;-60
2023/10/09 12:00:57;;;;;;;2.50;0.60;;;;;;;13.30;32.07;100610.02;105535;1256;60467;-61
2023/10/09 12:03:29;;;;;;;3.80;0.60;;;;;;;13.42;32.22;100613.98;105493;1254;65151;-60
2023/10/09 12:05:57;;;;;;;3.50;0.70;;;;;;;13.55;31.25;100617.22;105624;1259;60545;-63
2023/10/09 12:08:26;;;;;;;3.70;0.50;;;;;;;13.64;30.82;100614.53;105474;1257;62777;-60
2023/10/09 12:10:57;;;;;;;5.40;0.50;;;;;;;13.69;31.06;100615.29;105401;1254;60473;-60
2023/10/09 12:13:25;;;;;;;2.60;0.40;;;;;;;13.75;31.31;100614.52;109369;1254;58405;-60
2023/10/09 12:15:52;;;;;;;6.10;1.00;;;;;;;13.87;31.45;100609.98;109363;1253;65083;-60
2023/10/09 12:18:20;;;;;;;6.20;1.00;;;;;;;14.02;30.74;100607.21;109252;1254;61514;-70
2023/10/09 12:21:02;;;;;;;4.20;0.90;;;;;;;14.16;30.76;100605.23;106444;1255;64442;-59
2023/10/09 12:23:29;;;;;;;3.50;0.80;;;;;;;14.27;30.36;100608.12;106216;1254;61095;-59
2023/10/09 12:25:56;;;;;;;2.40;0.40;;;;;;;14.27;29.82;100610.88;105402;1254;60437;-59
2023/10/09 12:28:23;;;;;;;2.80;0.70;;;;;;;14.27;29.98;100609.14;106300;1258;64078;-59
2023/10/09 12:30:50;;;;;;;2.70;0.50;;;;;;;14.29;30.34;100604.88;105513;1257;61470;-58
2023/10/09 12:33:19;;;;;;;5.50;0.60;;;;;;;14.36;30.44;100607.42;105407;1254;64493;-58
2023/10/09 12:35:47;;;;;;;1.60;0.40;;;;;;;14.38;30.16;100611.19;105691;1258;60549;-62
2023/10/09 12:38:18;;;;;;;3.60;0.50;;;;;;;14.33;30.20;100608.95;105589;1254;60536;-61
2023/10/09 12:40:52;;;;;;;3.90;0.70;;;;;;;14.27;30.02;100607.39;105715;1254;75797;-61
2023/10/09 12:43:19;;;;;;;3.40;0.80;;;;;;;14.22;30.23;100601.48;105544;1259;61751;-59
2023/10/09 12:45:46;;;;;;;2.30;0.60;;;;;;;14.26;30.25;100602.02;105743;1259;64325;-60
2023/10/09 12:48:14;;;;;;;1.70;0.50;;;;;;;14.40;29.65;100600.69;105752;1255;60851;-58
2023/10/09 12:50:46;;;;;;;3.00;0.80;;;;;;;14.49;29.63;100593.13;105796;1259;60339;-60
2023/10/09 12:53:17;;;;;;;2.10;0.50;;;;;;;14.55;29.54;100601.85;105716;1259;65219;-61
2023/10/09 12:55:44;;;;;;;3.30;0.70;;;;;;;14.42;29.46;100598.11;105527;1254;60690;-61
2023/10/09 12:58:15;;;;;;;2.00;0.60;;;;;;;14.20;30.24;100592.84;105744;1258;63838;-61
2023/10/09 13:00:48;;;;;;;4.70;0.70;;;;;;;14.01;30.56;100586.52;105758;1257;60353;-60
2023/10/09 13:03:17;;;;;;;3.20;0.70;;;;;;;13.85;31.00;100583.55;105744;1260;60450;-62
2023/10/09 13:05:52;;;;;;;2.50;0.60;;;;;;;13.76;31.03;100579.95;105865;1257;65456;-63
2023/10/09 13:08:21;;;;;;;2.00;0.30;;;;;;;13.73;31.22;100584.18;105664;1259;60562;-59
2023/10/09 13:10:58;;;;;;;4.80;0.40;;;;;;;13.68;31.42;100583.81;105486;1259;63837;-62
2023/10/09 13:13:39;;;;;;;2.50;0.60;;;;;;;13.58;31.62;100582.93;105420;1255;60446;-56
2023/10/09 13:16:07;;;;;;;3.70;0.80;;;;;;;13.53;31.92;100578.96;106746;1259;60448;-61
2023/10/09 13:18:35;;;;;;;2.90;0.90;;;;;;;13.55;32.19;100579.15;105904;1257;65250;-61
2023/10/09 13:21:03;;;;;;;1.50;0.40;;;;;;;13.56;31.98;100579.06;106035;1256;61619;-61
2023/10/09 13:23:39;;;;;;;3.10;0.60;;;;;;;13.51;31.77;100590.59;106113;1259;64405;-60
2023/10/09 13:26:17;;;;;;;;;;;;;;;13.38;31.84;100587.39;105916;1254;60447;-60
2023/10/09 13:28:59;;;;;;;4.70;0.60;;;;;;;13.27;32.08;100583.61;105352;1254;60590;-57
2023/10/09 13:31:26;;;;;;;2.80;0.70;;;;;;;13.17;32.14;100585.83;105364;1259;65666;-57
2023/10/09 13:33:56;;;;;;;4.10;0.80;;;;;;;13.05;32.61;100584.80;105516;1258;62741;-58
2023/10/09 13:36:33;;;;;;;2.20;0.50;;;;;;;12.93;32.72;100583.70;105450;1257;63957;-57
2023/10/09 13:42:01;;;;;;;4.20;1.00;;;;;;;12.75;32.76;100580.09;105492;1258;60454;-56
2023/10/09 13:44:28;;;;;;;3.10;0.70;;;;;;;12.68;33.12;100576.89;105432;1259;65104;-56
2023/10/09 13:46:56;;;;;;;1.80;0.40;;;;;;;12.61;33.35;100574.08;105416;1258;61742;-56
2023/10/09 13:49:29;;;;;;;2.50;0.70;;;;;;;12.59;33.46;100571.24;105299;1259;64162;-58
2023/10/09 13:51:57;;;;;;;3.20;0.80;;;;;;;12.63;33.57;100572.16;105305;1254;60430;-60
2023/10/09 13:56:56;;;;;;;2.60;0.60;;;;;;;12.59;33.63;100574.23;105488;1259;65022;-60
2023/10/09 13:59:25;;;;;;;3.90;0.90;;;;;;;12.53;33.83;100576.52;105451;1264;60325;-62
2023/10/09 14:01:55;;;;;;;2.60;0.60;;;;;;;12.48;33.99;100578.04;105451;1257;64055;-60
2023/10/09 14:04:23;;;;;;;3.80;0.90;;;;;;;12.41;33.94;100582.83;105455;1257;60562;-62
2023/10/09 14:07:00;;;;;;;3.50;1.00;;;;;;;12.37;34.15;100587.39;107128;1259;60460;-63
2023/10/09 14:09:30;;;;;;;5.20;1.20;;;;;;;12.33;34.33;100590.38;105444;1259;66419;-62
2023/10/09 14:12:09;;;;;;;3.20;1.00;;;;;;;12.27;34.41;100589.30;106219;1260;61677;-60
2023/10/09 14:14:46;;;;;;;27.40;4.80;;;;;;;12.23;34.43;100592.60;105841;1255;63974;-60
2023/10/09 14:17:23;;;;;;;4.90;1.20;;;;;;;12.18;34.46;100590.21;105316;1254;60446;-60
2023/10/09 14:19:51;;;;;;;5.00;1.30;;;;;;;12.15;34.60;100584.63;105583;1257;60476;-61
2023/10/09 14:22:20;;;;;;;3.70;1.30;;;;;;;12.16;34.79;100587.94;105500;1256;65139;-61
2023/10/09 14:24:47;;;;;;;4.40;0.90;;;;;;;12.14;34.67;100587.73;105568;1258;60962;-61
2023/10/09 14:27:17;;;;;;;3.60;0.80;;;;;;;12.09;34.63;100588.81;105587;1258;65194;-62
2023/10/09 14:29:48;;;;;;;4.30;1.00;;;;;;;12.04;34.94;100589.05;105616;1255;60556;-59
2023/10/09 14:32:15;;;;;;;3.20;0.70;;;;;;;12.01;35.25;100590.73;105591;1254;60562;-60
2023/10/09 14:34:47;;;;;;;3.00;0.80;;;;;;;12.02;35.37;100591.34;105384;1257;64909;-60
2023/10/09 14:37:15;;;;;;;2.40;0.70;;;;;;;12.06;35.39;100592.61;105638;1259;61785;-59